createdAt,value
2018-02-25T00:02:21.744Z,61.25
2018-02-25T00:04:47.671Z,61.50
2018-02-25T00:07:13.570Z,63.66
2018-02-25T00:09:39.467Z,60.64
2018-02-25T00:12:05.400Z,63.42
2018-02-25T00:14:31.283Z,62.98
2018-02-25T00:16:57.166Z,64.45
2018-02-25T00:19:23.098Z,63.52
2018-02-25T00:21:49.010Z,62.92
2018-02-25T00:24:14.894Z,64.16
2018-02-25T00:26:40.806Z,62.65
2018-02-25T00:29:06.672Z,65.64
2018-02-25T00:31:32.565Z,63.30
2018-02-25T00:33:58.484Z,62.13
2018-02-25T00:36:24.344Z,63.57
2018-02-25T00:38:50.227Z,66.33
2018-02-25T00:41:16.163Z,64.51
2018-02-25T00:43:42.935Z,64.42
2018-02-25T00:46:08.821Z,63.04
2018-02-25T00:48:34.840Z,61.73
2018-02-25T00:51:00.734Z,62.46
2018-02-25T00:53:26.631Z,62.61
2018-02-25T00:55:52.645Z,65.13
2018-02-25T00:58:18.526Z,62.79
2018-02-25T01:00:44.426Z,63.25
2018-02-25T01:03:10.353Z,62.64
2018-02-25T01:05:36.233Z,64.12
2018-02-25T01:08:02.103Z,64.86
2018-02-25T01:10:28.022Z,63.63
2018-02-25T01:12:53.911Z,65.80
2018-02-25T01:15:19.800Z,66.10
2018-02-25T01:17:45.731Z,66.46
2018-02-25T01:20:11.614Z,64.60
2018-02-25T01:22:37.486Z,66.31
2018-02-25T01:25:03.431Z,65.50
2018-02-25T01:27:29.307Z,67.59
2018-02-25T01:29:55.185Z,66.35
2018-02-25T01:32:21.112Z,65.36
2018-02-25T01:34:46.994Z,67.21
2018-02-25T01:37:12.865Z,67.35
2018-02-25T01:39:38.782Z,65.89
2018-02-25T01:42:04.654Z,66.53
2018-02-25T01:44:30.600Z,68.58
2018-02-25T01:46:56.527Z,66.04
2018-02-25T01:49:22.422Z,68.17
2018-02-25T01:51:48.327Z,67.72
2018-02-25T01:54:14.255Z,67.64
2018-02-25T01:56:40.138Z,65.15
2018-02-25T01:59:06.002Z,68.27
2018-02-25T02:01:31.941Z,66.92
2018-02-25T02:03:57.822Z,67.60
2018-02-25T02:06:23.714Z,66.08
2018-02-25T02:08:49.655Z,64.61
2018-02-25T02:11:15.555Z,66.08
2018-02-25T02:13:41.447Z,65.17
2018-02-25T02:16:07.377Z,65.93
2018-02-25T02:18:33.325Z,66.39
2018-02-25T02:20:59.214Z,67.19
2018-02-25T02:23:25.152Z,68.28
2018-02-25T02:25:51.030Z,69.10
2018-02-25T02:28:16.906Z,68.44
2018-02-25T02:30:42.826Z,66.92
2018-02-25T02:33:08.705Z,69.68
2018-02-25T02:35:34.616Z,69.59
2018-02-25T02:38:00.529Z,68.66
2018-02-25T02:40:26.402Z,69.57
2018-02-25T02:42:52.279Z,70.61
2018-02-25T02:45:18.261Z,69.97
2018-02-25T02:47:44.667Z,69.89
2018-02-25T02:50:10.596Z,69.21
2018-02-25T02:52:36.895Z,69.60
2018-02-25T02:55:02.801Z,71.08
2018-02-25T02:57:28.713Z,70.92
2018-02-25T02:59:54.638Z,70.68
2018-02-25T03:02:20.522Z,68.07
2018-02-25T03:04:46.431Z,70.60
2018-02-25T03:07:12.362Z,70.72
2018-02-25T03:09:38.253Z,71.53
2018-02-25T03:12:04.143Z,70.78
2018-02-25T03:14:30.074Z,71.06
2018-02-25T03:16:55.966Z,70.07
2018-02-25T03:19:21.859Z,71.02
2018-02-25T03:21:47.790Z,71.28
2018-02-25T03:24:13.675Z,70.86
2018-02-25T03:26:39.549Z,69.69
2018-02-25T03:29:05.509Z,70.40
2018-02-25T03:31:31.401Z,71.62
2018-02-25T03:33:57.301Z,71.70
2018-02-25T03:36:23.551Z,70.75
2018-02-25T03:38:49.438Z,70.76
2018-02-25T03:41:15.303Z,72.05
2018-02-25T03:43:41.241Z,69.86
2018-02-25T03:46:07.269Z,70.97
2018-02-25T03:48:33.142Z,70.54
2018-02-25T03:50:59.082Z,71.50
2018-02-25T03:53:24.958Z,71.41
2018-02-25T03:55:50.827Z,70.87
2018-02-25T03:58:16.854Z,70.68
2018-02-25T04:00:42.743Z,70.60
2018-02-25T04:03:08.613Z,69.76
2018-02-25T04:05:34.554Z,71.02
2018-02-25T04:08:00.470Z,71.15
2018-02-25T04:10:26.451Z,70.86
2018-02-25T04:12:52.374Z,70.76
2018-02-25T04:15:18.278Z,71.05
2018-02-25T04:17:44.183Z,71.36
2018-02-25T04:20:10.101Z,72.34
2018-02-25T04:22:36.082Z,71.51
2018-02-25T04:25:01.962Z,72.27
2018-02-25T04:27:27.886Z,71.01
2018-02-25T04:29:53.778Z,71.84
2018-02-25T04:32:19.641Z,70.40
2018-02-25T04:34:45.682Z,71.50
2018-02-25T04:37:11.654Z,71.57
2018-02-25T04:39:37.575Z,72.01
2018-02-25T04:42:03.510Z,70.50
2018-02-25T04:44:29.405Z,71.98
2018-02-25T04:46:55.391Z,71.44
2018-02-25T04:49:21.363Z,72.17
2018-02-25T04:51:47.264Z,70.54
2018-02-25T04:54:13.137Z,71.70
2018-02-25T04:56:39.072Z,72.16
2018-02-25T04:59:05.063Z,72.29
2018-02-25T05:01:30.952Z,72.08
2018-02-25T05:03:57.048Z,71.68
2018-02-25T05:06:22.944Z,72.19
2018-02-25T05:08:48.843Z,73.16
2018-02-25T05:11:14.874Z,73.31
2018-02-25T05:13:40.874Z,73.09
2018-02-25T05:16:06.865Z,73.34
2018-02-25T05:18:32.802Z,72.81
2018-02-25T05:20:58.678Z,72.21
2018-02-25T05:23:24.654Z,72.09
2018-02-25T05:25:51.054Z,72.13
2018-02-25T05:28:16.977Z,72.36
2018-02-25T05:30:42.860Z,73.21
2018-02-25T05:33:08.790Z,72.89
2018-02-25T05:35:34.862Z,71.91
2018-02-25T05:38:00.750Z,72.90
2018-02-25T05:40:26.694Z,73.29
2018-02-25T05:42:52.590Z,72.29
2018-02-25T05:45:18.489Z,73.18
2018-02-25T05:47:44.790Z,72.75
2018-02-25T05:50:10.681Z,73.16
2018-02-25T05:52:36.567Z,72.43
2018-02-25T05:55:02.499Z,73.19
2018-02-25T05:57:28.379Z,73.28
2018-02-25T05:59:54.390Z,73.62
2018-02-25T06:02:20.876Z,72.75
2018-02-25T06:04:47.234Z,72.56
2018-02-25T06:07:13.159Z,73.27
2018-02-25T06:09:39.123Z,73.81
2018-02-25T06:12:05.175Z,73.02
2018-02-25T06:14:31.069Z,73.23
2018-02-25T06:16:57.009Z,73.16
2018-02-25T06:19:22.869Z,73.68
2018-02-25T06:21:48.749Z,73.86
2018-02-25T06:24:14.776Z,74.38
2018-02-25T06:26:40.742Z,74.50
2018-02-25T06:29:06.669Z,74.36
2018-02-25T06:31:32.633Z,74.61
2018-02-25T06:33:58.542Z,74.30
2018-02-25T06:36:24.522Z,73.12
2018-02-25T06:38:50.461Z,72.94
2018-02-25T06:41:16.342Z,72.74
2018-02-25T06:43:42.220Z,72.94
2018-02-25T06:46:08.133Z,72.49
2018-02-25T06:48:34.194Z,72.52
2018-02-25T06:51:00.082Z,71.88
2018-02-25T06:53:26.116Z,71.47
2018-02-25T06:55:52.006Z,71.20
2018-02-25T06:58:17.901Z,70.91
2018-02-25T07:00:43.966Z,71.32
2018-02-25T07:03:09.873Z,70.98
2018-02-25T07:05:35.749Z,69.80
2018-02-25T07:08:01.717Z,70.08
2018-02-25T07:10:27.558Z,70.24
2018-02-25T07:12:53.544Z,69.71
2018-02-25T07:15:20.768Z,69.26
2018-02-25T07:17:46.676Z,70.01
2018-02-25T07:20:12.590Z,69.61
2018-02-25T07:22:38.538Z,68.91
2018-02-25T07:25:04.589Z,68.25
2018-02-25T07:27:30.502Z,68.58
2018-02-25T07:29:56.426Z,68.90
2018-02-25T07:32:22.337Z,69.09
2018-02-25T07:34:48.232Z,68.42
2018-02-25T07:37:14.290Z,68.04
2018-02-25T07:39:40.144Z,67.63
2018-02-25T07:42:06.047Z,68.09
2018-02-25T07:44:31.986Z,68.16
2018-02-25T07:46:57.853Z,67.97
2018-02-25T07:49:23.809Z,67.50
2018-02-25T07:51:49.743Z,67.25
2018-02-25T07:54:15.716Z,66.43
2018-02-25T07:56:41.602Z,66.83
2018-02-25T07:59:07.505Z,64.12
2018-02-25T08:01:33.508Z,62.88
2018-02-25T08:03:59.436Z,62.17
2018-02-25T08:06:25.319Z,61.77
2018-02-25T08:08:51.186Z,61.05
2018-02-25T08:11:17.053Z,62.08
2018-02-25T08:13:43.065Z,62.18
2018-02-25T08:16:09.006Z,62.03
2018-02-25T08:18:34.913Z,56.88
2018-02-25T08:21:00.814Z,55.67
2018-02-25T08:23:26.715Z,54.79
2018-02-25T08:25:52.654Z,55.95
2018-02-25T08:28:18.646Z,53.49
2018-02-25T08:30:44.523Z,51.53
2018-02-25T08:33:10.382Z,52.51
2018-02-25T08:35:36.299Z,53.99
2018-02-25T08:38:02.246Z,54.10
2018-02-25T08:40:28.165Z,53.56
2018-02-25T08:42:54.073Z,50.86
2018-02-25T08:45:19.937Z,50.36
2018-02-25T08:47:45.802Z,50.35
2018-02-25T08:50:11.913Z,47.93
2018-02-25T08:52:37.814Z,48.00
2018-02-25T08:55:03.686Z,50.69
2018-02-25T08:57:29.596Z,50.19
2018-02-25T08:59:55.472Z,49.20
2018-02-25T09:02:21.465Z,51.32
2018-02-25T09:04:47.428Z,51.71
2018-02-25T09:07:13.411Z,47.89
2018-02-25T09:09:39.286Z,47.97
2018-02-25T09:12:05.204Z,49.15
2018-02-25T09:14:31.175Z,45.76
2018-02-25T09:16:57.095Z,48.47
2018-02-25T09:19:23.001Z,46.45
2018-02-25T09:21:48.952Z,46.74
2018-02-25T09:24:14.800Z,47.63
2018-02-25T09:26:41.345Z,46.30
2018-02-25T09:29:07.281Z,47.64
2018-02-25T09:31:33.212Z,49.35
2018-02-25T09:33:59.205Z,48.38
2018-02-25T09:36:25.074Z,47.52
2018-02-25T09:38:51.023Z,47.62
2018-02-25T09:41:16.999Z,47.94
2018-02-25T09:43:42.894Z,48.08
2018-02-25T09:46:08.751Z,44.49
2018-02-25T09:48:34.681Z,44.43
2018-02-25T09:51:00.646Z,46.54
2018-02-25T09:53:26.574Z,45.70
2018-02-25T09:55:52.493Z,43.66
2018-02-25T09:58:18.373Z,41.94
2018-02-25T10:00:44.314Z,38.60
2018-02-25T10:03:10.310Z,41.55
2018-02-25T10:05:36.237Z,42.58
2018-02-25T10:08:02.113Z,41.70
2018-02-25T10:10:28.050Z,41.67
2018-02-25T10:12:53.913Z,39.45
2018-02-25T10:15:19.856Z,40.67
2018-02-25T10:17:45.890Z,39.34
2018-02-25T10:20:11.753Z,38.52
2018-02-25T10:22:37.641Z,38.54
2018-02-25T10:25:03.563Z,38.40
2018-02-25T10:27:29.515Z,36.60
2018-02-25T10:29:55.438Z,39.30
2018-02-25T10:32:21.355Z,39.63
2018-02-25T10:34:47.234Z,38.78
2018-02-25T10:37:13.103Z,38.96
2018-02-25T10:39:39.115Z,37.06
2018-02-25T10:42:05.029Z,36.80
2018-02-25T10:44:30.890Z,37.39
2018-02-25T10:46:56.797Z,39.28
2018-02-25T10:49:22.668Z,37.40
2018-02-25T10:51:48.646Z,39.03
2018-02-25T10:54:14.718Z,38.15
2018-02-25T10:56:41.153Z,35.95
2018-02-25T10:59:07.066Z,37.89
2018-02-25T11:01:32.963Z,36.37
2018-02-25T11:03:58.929Z,35.84
2018-02-25T11:06:24.858Z,35.16
2018-02-25T11:08:50.774Z,37.18
2018-02-25T11:11:16.650Z,39.02
2018-02-25T11:13:42.508Z,39.23
2018-02-25T11:16:08.510Z,39.79
2018-02-25T11:18:34.436Z,38.74
2018-02-25T11:21:00.553Z,39.77
2018-02-25T11:23:26.475Z,37.39
2018-02-25T11:25:52.338Z,36.56
2018-02-25T11:28:18.280Z,36.05
2018-02-25T11:30:44.267Z,38.30
2018-02-25T11:33:10.155Z,37.34
2018-02-25T11:35:36.020Z,38.12
2018-02-25T11:38:01.937Z,38.35
2018-02-25T11:40:28.006Z,35.58
2018-02-25T11:42:53.934Z,36.69
2018-02-25T11:45:19.842Z,35.38
2018-02-25T11:47:45.706Z,36.27
2018-02-25T11:50:11.570Z,35.90
2018-02-25T11:52:37.620Z,34.19
2018-02-25T11:55:03.546Z,34.72
2018-02-25T11:57:29.425Z,34.52
2018-02-25T11:59:55.332Z,32.32
2018-02-25T12:02:21.206Z,31.61
2018-02-25T12:04:47.179Z,31.40
2018-02-25T12:07:13.573Z,33.70
2018-02-25T12:09:39.449Z,32.03
2018-02-25T12:12:05.334Z,32.48
2018-02-25T12:14:31.238Z,33.41
2018-02-25T12:16:57.212Z,33.21
2018-02-25T12:19:23.129Z,34.12
2018-02-25T12:21:49.032Z,34.53
2018-02-25T12:24:15.069Z,32.96
2018-02-25T12:26:40.949Z,34.12
2018-02-25T12:29:06.986Z,34.92
2018-02-25T12:31:32.937Z,36.40
2018-02-25T12:33:58.800Z,36.95
2018-02-25T12:36:24.726Z,36.61
2018-02-25T12:38:50.602Z,36.72
2018-02-25T12:41:16.576Z,34.81
2018-02-25T12:43:42.530Z,35.01
2018-02-25T12:46:08.389Z,35.32
2018-02-25T12:48:34.273Z,33.63
2018-02-25T12:51:00.219Z,34.20
2018-02-25T12:53:26.165Z,35.28
2018-02-25T12:55:52.104Z,36.53
2018-02-25T12:58:18.018Z,35.96
2018-02-25T13:00:43.874Z,36.71
2018-02-25T13:03:09.762Z,37.35
2018-02-25T13:05:36.163Z,37.25
2018-02-25T13:08:02.082Z,36.89
2018-02-25T13:10:28.288Z,37.87
2018-02-25T13:12:54.209Z,38.82
2018-02-25T13:15:20.079Z,37.70
2018-02-25T13:17:46.054Z,37.83
2018-02-25T13:20:12.050Z,37.96
2018-02-25T13:22:37.930Z,38.61
2018-02-25T13:25:03.940Z,40.26
2018-02-25T13:27:29.850Z,40.18
2018-02-25T13:29:55.897Z,40.62
2018-02-25T13:32:21.806Z,39.45
2018-02-25T13:34:47.732Z,40.35
2018-02-25T13:37:13.667Z,40.64
2018-02-25T13:39:39.543Z,39.78
2018-02-25T13:42:05.581Z,38.88
2018-02-25T13:44:31.518Z,39.06
2018-02-25T13:46:57.406Z,39.25
2018-02-25T13:49:23.338Z,38.77
2018-02-25T13:51:49.211Z,39.75
2018-02-25T13:54:15.191Z,39.92
2018-02-25T13:56:41.170Z,39.90
2018-02-25T13:59:07.038Z,39.78
2018-02-25T14:01:32.891Z,39.65
2018-02-25T14:03:59.170Z,39.77
2018-02-25T14:06:25.159Z,38.78
2018-02-25T14:08:51.114Z,40.22
2018-02-25T14:11:17.017Z,39.80
2018-02-25T14:13:42.881Z,39.32
2018-02-25T14:16:08.742Z,39.97
2018-02-25T14:18:34.737Z,39.81
2018-02-25T14:21:00.672Z,40.48
2018-02-25T14:23:26.544Z,39.30
2018-02-25T14:25:52.461Z,38.55
2018-02-25T14:28:18.320Z,39.42
2018-02-25T14:30:44.299Z,39.91
2018-02-25T14:33:10.294Z,40.23
2018-02-25T14:35:36.166Z,40.13
2018-02-25T14:38:02.045Z,40.87
2018-02-25T14:40:27.946Z,40.48
2018-02-25T14:42:53.894Z,40.50
2018-02-25T14:45:19.792Z,42.21
2018-02-25T14:47:45.706Z,40.53
2018-02-25T14:50:11.570Z,40.77
2018-02-25T14:52:37.437Z,40.70
2018-02-25T14:55:03.424Z,41.07
2018-02-25T14:57:29.354Z,42.09
2018-02-25T14:59:55.221Z,41.16
2018-02-25T15:02:21.195Z,41.39
2018-02-25T15:04:47.075Z,41.49
2018-02-25T15:07:13.037Z,42.69
2018-02-25T15:09:38.997Z,41.50
2018-02-25T15:12:04.860Z,41.35
2018-02-25T15:14:30.954Z,41.82
2018-02-25T15:16:56.888Z,42.51
2018-02-25T15:19:22.830Z,41.40
2018-02-25T15:21:48.748Z,41.29
2018-02-25T15:24:14.644Z,42.17
2018-02-25T15:26:40.496Z,42.14
2018-02-25T15:29:06.385Z,43.27
2018-02-25T15:31:32.389Z,43.31
2018-02-25T15:33:58.315Z,43.87
2018-02-25T15:36:24.262Z,43.61
2018-02-25T15:38:50.466Z,43.78
2018-02-25T15:41:16.337Z,43.78
2018-02-25T15:43:42.307Z,45.00
2018-02-25T15:46:08.278Z,43.78
2018-02-25T15:48:34.242Z,45.33
2018-02-25T15:51:00.104Z,46.11
2018-02-25T15:53:26.000Z,46.33
2018-02-25T15:55:51.945Z,45.25
2018-02-25T15:58:17.870Z,46.70
2018-02-25T16:00:43.798Z,45.47
2018-02-25T16:03:09.656Z,46.29
2018-02-25T16:05:35.572Z,45.65
2018-02-25T16:08:01.517Z,46.02
2018-02-25T16:10:27.436Z,45.72
2018-02-25T16:12:53.294Z,46.49
2018-02-25T16:15:19.218Z,47.38
2018-02-25T16:17:45.145Z,45.88
2018-02-25T16:20:11.065Z,47.20
2018-02-25T16:22:37.024Z,46.55
2018-02-25T16:25:02.900Z,47.11
2018-02-25T16:27:28.765Z,46.89
2018-02-25T16:29:54.737Z,46.92
2018-02-25T16:32:20.702Z,48.44
2018-02-25T16:34:46.617Z,49.16
2018-02-25T16:37:12.530Z,48.16
2018-02-25T16:39:38.454Z,48.40
2018-02-25T16:42:04.397Z,48.91
2018-02-25T16:44:30.493Z,49.29
2018-02-25T16:46:56.544Z,48.84
2018-02-25T16:49:22.788Z,51.62
2018-02-25T16:51:48.768Z,50.97
2018-02-25T16:54:14.802Z,49.27
2018-02-25T16:56:40.751Z,50.29
2018-02-25T16:59:06.742Z,54.44
2018-02-25T17:01:32.654Z,53.81
2018-02-25T17:03:58.718Z,50.71
2018-02-25T17:06:24.857Z,52.93
2018-02-25T17:08:50.964Z,55.14
2018-02-25T17:11:16.913Z,53.73
2018-02-25T17:13:42.846Z,53.41
2018-02-25T17:16:08.728Z,54.23
2018-02-25T17:18:34.785Z,53.88
2018-02-25T17:21:00.706Z,53.55
2018-02-25T17:23:26.643Z,53.64
2018-02-25T17:25:52.531Z,54.73
2018-02-25T17:28:18.765Z,54.76
2018-02-25T17:30:44.654Z,53.48
2018-02-25T17:33:10.574Z,54.07
2018-02-25T17:35:36.634Z,53.99
2018-02-25T17:38:02.527Z,54.05
2018-02-25T17:40:28.406Z,53.85
2018-02-25T17:42:54.322Z,53.51
2018-02-25T17:45:21.142Z,53.76
2018-02-25T17:47:47.088Z,53.36
2018-02-25T17:50:13.077Z,54.43
2018-02-25T17:52:38.949Z,53.92
2018-02-25T17:55:04.827Z,53.14
2018-02-25T17:57:30.762Z,53.11
2018-02-25T17:59:56.706Z,53.36
2018-02-25T18:02:22.708Z,52.71
2018-02-25T18:04:48.614Z,53.47
2018-02-25T18:07:14.474Z,54.29
2018-02-25T18:09:41.267Z,53.68
2018-02-25T18:12:07.232Z,52.82
2018-02-25T18:14:33.202Z,52.74
2018-02-25T18:16:59.270Z,52.49
2018-02-25T18:19:25.161Z,52.84
2018-02-25T18:21:51.020Z,52.16
2018-02-25T18:24:16.938Z,52.65
2018-02-25T18:26:42.926Z,52.77
2018-02-25T18:29:08.798Z,53.08
2018-02-25T18:31:34.684Z,53.53
2018-02-25T18:34:00.605Z,53.83
2018-02-25T18:36:26.550Z,53.28
2018-02-25T18:38:52.489Z,55.03
2018-02-25T18:41:18.434Z,54.18
2018-02-25T18:43:44.555Z,56.25
2018-02-25T18:46:10.426Z,54.03
2018-02-25T18:48:36.457Z,54.56
2018-02-25T18:51:02.403Z,56.61
2018-02-25T18:53:28.270Z,57.05
2018-02-25T18:55:54.224Z,56.37
2018-02-25T18:58:20.228Z,58.06
2018-02-25T19:00:46.202Z,55.41
2018-02-25T19:03:12.643Z,55.75
2018-02-25T19:05:38.607Z,56.86
2018-02-25T19:08:04.533Z,56.01
2018-02-25T19:10:30.518Z,56.51
2018-02-25T19:12:56.537Z,59.02
2018-02-25T19:15:22.526Z,58.17
2018-02-25T19:17:48.529Z,58.54
2018-02-25T19:20:14.612Z,57.61
2018-02-25T19:22:40.949Z,59.39
2018-02-25T19:25:06.888Z,59.49
2018-02-25T19:27:33.260Z,58.33
2018-02-25T19:29:59.143Z,57.56
2018-02-25T19:32:25.110Z,58.04
2018-02-25T19:34:51.095Z,58.82
2018-02-25T19:40:27.198Z,58.07
2018-02-25T19:42:53.260Z,57.86
2018-02-25T19:45:19.137Z,58.24
2018-02-25T19:47:45.060Z,57.56
2018-02-25T19:50:10.997Z,58.41
2018-02-25T19:52:36.892Z,59.21
2018-02-25T19:55:02.909Z,58.95
2018-02-25T19:57:28.868Z,59.15
2018-02-25T19:59:54.918Z,59.29
2018-02-25T20:02:20.810Z,61.20
2018-02-25T20:04:46.744Z,62.11
2018-02-25T20:07:12.763Z,64.02
2018-02-25T20:09:38.693Z,64.19
2018-02-25T20:12:04.856Z,64.24
2018-02-25T20:14:30.827Z,64.82
2018-02-25T20:16:56.839Z,64.38
2018-02-25T20:19:22.769Z,64.75
2018-02-25T20:21:48.670Z,64.26
2018-02-25T20:24:15.099Z,63.50
2018-02-25T20:26:41.107Z,64.95
2018-02-25T20:29:07.317Z,64.42
2018-02-25T20:31:33.266Z,64.98
2018-02-25T20:33:59.244Z,65.70
2018-02-25T20:36:25.648Z,66.42
2018-02-25T20:38:51.562Z,66.52
2018-02-25T20:41:17.918Z,66.43
2018-02-25T20:43:44.064Z,66.58
2018-02-25T20:46:10.005Z,65.81
2018-02-25T20:48:36.405Z,65.99
2018-02-25T20:51:02.299Z,66.42
2018-02-25T20:53:28.250Z,66.77
2018-02-25T20:55:54.171Z,67.00
2018-02-25T20:58:20.062Z,68.09
2018-02-25T21:00:46.312Z,66.54
2018-02-25T21:03:12.263Z,66.78
2018-02-25T21:05:38.250Z,67.11
2018-02-25T21:08:04.203Z,67.35
2018-02-25T21:10:30.436Z,68.15
2018-02-25T21:12:56.611Z,67.90
2018-02-25T21:15:22.525Z,66.93
2018-02-25T21:17:48.540Z,67.89
2018-02-25T21:20:14.420Z,68.26
2018-02-25T21:22:40.281Z,68.68
2018-02-25T21:25:06.632Z,68.76
2018-02-25T21:27:32.571Z,68.77
2018-02-25T21:29:58.572Z,69.49
2018-02-25T21:32:24.510Z,69.54
2018-02-25T21:34:50.483Z,69.80
2018-02-25T21:37:16.379Z,70.99
2018-02-25T21:39:42.299Z,71.21
2018-02-25T21:42:08.392Z,70.20
2018-02-25T21:44:34.314Z,70.96
2018-02-25T21:47:00.520Z,71.79
2018-02-25T21:49:26.394Z,72.21
2018-02-25T21:51:52.293Z,71.98
2018-02-25T21:54:25.248Z,72.87
2018-02-25T21:56:57.096Z,72.52
2018-02-25T21:59:29.391Z,72.28
2018-02-25T22:02:01.293Z,73.30
2018-02-25T22:04:27.250Z,73.57
2018-02-25T22:06:53.213Z,73.99
2018-02-25T22:09:19.930Z,73.37
2018-02-25T22:11:45.797Z,73.99
2018-02-25T22:14:11.714Z,74.07
2018-02-25T22:16:37.656Z,74.22
2018-02-25T22:19:03.546Z,73.52
2018-02-25T22:21:29.466Z,73.51
2018-02-25T22:23:55.359Z,74.13
2018-02-25T22:26:21.229Z,73.83
2018-02-25T22:28:47.257Z,74.04
2018-02-25T22:31:13.154Z,73.90
2018-02-25T22:33:39.009Z,74.34
2018-02-25T22:36:04.926Z,75.38
2018-02-25T22:38:30.788Z,75.30
2018-02-25T22:40:56.750Z,75.48
2018-02-25T22:43:22.993Z,75.16
2018-02-25T22:45:48.888Z,75.34
2018-02-25T22:48:14.774Z,75.30
2018-02-25T22:50:40.710Z,75.45
2018-02-25T22:53:06.695Z,75.55
2018-02-25T22:55:32.579Z,75.91
2018-02-25T22:57:58.497Z,75.86
2018-02-25T23:00:24.382Z,76.38
2018-02-25T23:02:50.244Z,76.39
2018-02-25T23:05:16.280Z,77.07
2018-02-25T23:07:42.162Z,77.30
2018-02-25T23:10:08.051Z,77.56
2018-02-25T23:12:33.948Z,76.81
2018-02-25T23:14:59.810Z,77.08
2018-02-25T23:17:25.779Z,76.97
2018-02-25T23:19:52.390Z,76.75
2018-02-25T23:22:18.260Z,76.33
2018-02-25T23:24:44.146Z,76.45
2018-02-25T23:27:10.053Z,75.30
2018-02-25T23:29:36.007Z,75.59
2018-02-25T23:32:01.910Z,75.04
2018-02-25T23:34:27.828Z,74.47
2018-02-25T23:36:53.726Z,75.00
2018-02-25T23:39:19.587Z,74.90
2018-02-25T23:41:45.573Z,75.67
2018-02-25T23:44:11.481Z,75.53
2018-02-25T23:46:37.344Z,75.90
2018-02-25T23:49:03.548Z,76.05
2018-02-25T23:51:29.422Z,76.05
2018-02-25T23:53:55.400Z,75.55
2018-02-25T23:56:21.402Z,76.00
2018-02-25T23:58:47.276Z,76.94
